Time;durP1;ratioP1;P1;durP2;ratioP2;P2;SDS_P1;SDS_P2;PMS_P1;PMS_P2;Temp;Humidity;BMP_temperature;BMP_pressure;BME280_temperature;BME280_humidity;BME280_pressure;Samples;Min_cycle;Max_cycle;Signal;HPM_P1;HPM_P2
2021/05/05 00:00:11;;;;;;;2.20;0.52;;;18.40;37.90;;;;;;5116160;28;20486;-66
2021/05/05 00:02:36;;;;;;;1.70;0.50;;;18.40;37.90;;;;;;5116245;28;20122;-66
2021/05/05 00:05:02;;;;;;;0.77;0.40;;;18.40;37.90;;;;;;5116250;28;20540;-66
2021/05/05 00:07:28;;;;;;;1.83;0.45;;;18.40;38.00;;;;;;5116125;28;20038;-66
2021/05/05 00:09:53;;;;;;;2.08;0.85;;;18.40;37.90;;;;;;5115910;28;20019;-65
2021/05/05 00:12:19;;;;;;;2.47;0.73;;;18.40;37.90;;;;;;5115912;28;20040;-66
2021/05/05 00:14:44;;;;;;;3.20;0.70;;;18.40;37.90;;;;;;5116301;28;20034;-66
2021/05/05 00:17:10;;;;;;;2.80;0.70;;;18.40;37.90;;;;;;5115878;28;20031;-66
2021/05/05 00:19:35;;;;;;;2.88;0.63;;;18.40;37.90;;;;;;5115802;28;20031;-66
2021/05/05 00:22:01;;;;;;;1.10;0.43;;;18.40;37.90;;;;;;5115948;28;20031;-66
2021/05/05 00:24:27;;;;;;;1.63;0.60;;;18.40;37.90;;;;;;5114357;28;20449;-66
2021/05/05 00:26:52;;;;;;;3.28;0.45;;;18.40;38.00;;;;;;5115615;28;20055;-66
2021/05/05 00:29:18;;;;;;;1.80;0.47;;;18.40;37.90;;;;;;5116100;28;20445;-66
2021/05/05 00:31:44;;;;;;;2.25;0.60;;;18.40;37.90;;;;;;5115779;28;20091;-66
2021/05/05 00:34:09;;;;;;;3.50;0.60;;;18.30;37.90;;;;;;5116052;28;20028;-66
2021/05/05 00:36:35;;;;;;;1.88;0.60;;;18.40;37.90;;;;;;5115641;28;20028;-66
2021/05/05 00:39:03;;;;;;;1.75;0.60;;;18.40;38.00;;;;;;5114139;28;20027;-65
2021/05/05 00:41:28;;;;;;;2.22;0.60;;;18.40;37.90;;;;;;5116033;28;20031;-66
2021/05/05 00:43:54;;;;;;;2.53;0.70;;;18.40;37.90;;;;;;5115560;28;20035;-65
2021/05/05 00:46:20;;;;;;;1.80;0.70;;;18.30;38.00;;;;;;5115124;28;20031;-66
2021/05/05 00:48:45;;;;;;;2.05;0.60;;;18.40;38.00;;;;;;5115344;28;20114;-66
2021/05/05 00:51:11;;;;;;;1.50;0.55;;;18.30;38.00;;;;;;5115311;28;20555;-66
2021/05/05 00:53:39;;;;;;;1.70;0.57;;;18.30;38.00;;;;;;5114926;28;20042;-66
2021/05/05 00:56:05;;;;;;;2.33;0.57;;;18.30;38.00;;;;;;5115155;28;20451;-66
2021/05/05 00:58:30;;;;;;;1.65;0.47;;;18.40;38.00;;;;;;5115337;28;20046;-66
2021/05/05 01:00:56;;;;;;;1.17;0.52;;;18.40;37.90;;;;;;5115245;27;20024;-66
2021/05/05 01:03:22;;;;;;;2.25;0.65;;;18.30;37.90;;;;;;5115187;28;20522;-66
2021/05/05 01:05:49;;;;;;;5.43;0.65;;;18.30;37.90;;;;;;5114664;28;20036;-66
2021/05/05 01:08:16;;;;;;;1.10;0.40;;;18.30;38.00;;;;;;5114960;28;20028;-65
2021/05/05 01:10:44;;;;;;;1.65;0.40;;;18.30;37.90;;;;;;5114292;28;20471;-65
2021/05/05 01:13:10;;;;;;;2.80;0.65;;;18.30;37.90;;;;;;5114861;28;20470;-65
2021/05/05 01:15:36;;;;;;;1.42;0.55;;;18.30;38.00;;;;;;5115215;28;20031;-66
2021/05/05 01:18:02;;;;;;;1.00;0.57;;;18.30;38.00;;;;;;5114631;28;20122;-66
2021/05/05 01:20:30;;;;;;;0.80;0.35;;;18.30;37.90;;;;;;5114724;28;20020;-65
2021/05/05 01:22:56;;;;;;;3.10;0.70;;;18.30;38.00;;;;;;5114516;28;20051;-66
2021/05/05 01:25:22;;;;;;;1.20;0.50;;;18.30;38.00;;;;;;5114496;28;20028;-65
2021/05/05 01:27:48;;;;;;;1.63;0.40;;;18.30;38.00;;;;;;5114855;28;20027;-66
2021/05/05 01:30:16;;;;;;;1.17;0.60;;;18.30;38.00;;;;;;5114570;28;20540;-65
2021/05/05 01:32:42;;;;;;;1.67;0.60;;;18.30;38.00;;;;;;5114504;28;20031;-66
2021/05/05 01:35:11;;;;;;;2.10;0.75;;;18.30;38.00;;;;;;5114487;28;20027;-65
2021/05/05 01:37:40;;;;;;;2.28;0.60;;;18.30;38.00;;;;;;5114457;28;20107;-65
2021/05/05 01:40:11;;;;;;;2.30;0.68;;;18.30;38.00;;;;;;5114492;28;20055;-65
2021/05/05 01:42:37;;;;;;;1.73;0.60;;;18.30;38.00;;;;;;5113609;28;20062;-66
2021/05/05 01:45:03;;;;;;;3.05;0.63;;;18.30;38.00;;;;;;5114690;28;20058;-65
2021/05/05 01:47:29;;;;;;;2.35;0.70;;;18.30;38.00;;;;;;5113976;28;20069;-66
2021/05/05 01:49:54;;;;;;;2.78;0.80;;;18.30;38.00;;;;;;5114187;28;20437;-65
2021/05/05 01:52:20;;;;;;;1.40;0.57;;;18.30;38.00;;;;;;5114080;28;20035;-66
2021/05/05 01:54:46;;;;;;;1.65;0.60;;;18.20;38.00;;;;;;5114838;28;20432;-66
2021/05/05 01:57:33;;;;;;;1.33;0.60;;;18.30;38.00;;;;;;5114535;28;20024;-66
2021/05/05 02:00:00;;;;;;;0.82;0.25;;;18.30;38.00;;;;;;5114525;28;20554;-66
2021/05/05 02:02:30;;;;;;;1.15;0.40;;;18.20;38.00;;;;;;5114265;28;20379;-65
2021/05/05 02:04:55;;;;;;;1.65;0.50;;;18.30;38.00;;;;;;5114476;28;20028;-65
2021/05/05 02:07:21;;;;;;;2.30;0.60;;;18.20;38.00;;;;;;5114446;28;20016;-65
2021/05/05 02:09:47;;;;;;;2.00;0.50;;;18.20;38.00;;;;;;5114248;28;20484;-65
2021/05/05 02:12:13;;;;;;;1.52;0.47;;;18.20;38.00;;;;;;5113935;28;20042;-66
2021/05/05 02:14:39;;;;;;;2.10;0.55;;;18.20;38.00;;;;;;5113501;28;20502;-66
2021/05/05 02:17:05;;;;;;;0.85;0.40;;;18.20;38.00;;;;;;5113938;28;20024;-66
2021/05/05 02:19:31;;;;;;;1.00;0.60;;;18.20;38.00;;;;;;5113819;28;20027;-65
2021/05/05 02:21:56;;;;;;;1.30;0.68;;;18.20;38.00;;;;;;5113550;28;20033;-65
2021/05/05 02:24:22;;;;;;;1.63;0.50;;;18.20;38.00;;;;;;5113622;28;20495;-66
2021/05/05 02:26:47;;;;;;;1.50;0.55;;;18.20;38.00;;;;;;5113740;28;20024;-66
2021/05/05 02:29:13;;;;;;;1.98;0.32;;;18.20;38.00;;;;;;5112537;28;20376;-66
2021/05/05 02:31:39;;;;;;;1.33;0.40;;;18.20;38.00;;;;;;5113218;28;20502;-65
2021/05/05 02:34:04;;;;;;;1.95;0.50;;;18.20;38.00;;;;;;5112314;28;20067;-65
2021/05/05 02:36:31;;;;;;;1.75;0.57;;;18.20;38.00;;;;;;5113697;28;20020;-65
2021/05/05 02:38:59;;;;;;;0.47;0.30;;;18.20;38.00;;;;;;5113792;28;20028;-65
2021/05/05 02:41:25;;;;;;;0.77;0.30;;;18.20;38.00;;;;;;5113569;28;20491;-66
2021/05/05 02:43:50;;;;;;;2.42;0.40;;;18.20;38.00;;;;;;5113465;28;20048;-65
2021/05/05 02:46:16;;;;;;;1.23;0.43;;;18.20;38.00;;;;;;5113359;28;20024;-65
2021/05/05 02:48:42;;;;;;;2.42;0.50;;;18.20;38.00;;;;;;5113532;28;20019;-65
2021/05/05 02:51:07;;;;;;;2.47;0.50;;;18.20;38.00;;;;;;5113553;28;20108;-65
2021/05/05 02:53:33;;;;;;;0.40;0.30;;;18.20;38.00;;;;;;5113555;28;20080;-66
2021/05/05 02:55:58;;;;;;;1.75;0.57;;;18.20;38.00;;;;;;5113387;28;20088;-66
2021/05/05 02:58:24;;;;;;;1.65;0.50;;;18.20;38.00;;;;;;5113187;28;20030;-66
2021/05/05 03:00:49;;;;;;;1.73;0.68;;;18.20;38.00;;;;;;5113196;28;20022;-65
2021/05/05 03:03:15;;;;;;;1.15;0.40;;;18.20;38.00;;;;;;5113269;28;20140;-65
2021/05/05 03:05:40;;;;;;;1.27;0.30;;;18.20;38.00;;;;;;5113470;28;20061;-66
2021/05/05 03:08:06;;;;;;;1.30;0.50;;;18.20;38.00;;;;;;5113326;28;20038;-66
2021/05/05 03:10:32;;;;;;;1.35;0.60;;;18.20;38.00;;;;;;5111605;28;20024;-65
2021/05/05 03:12:58;;;;;;;0.80;0.30;;;18.20;38.00;;;;;;5113276;28;20078;-65
2021/05/05 03:15:23;;;;;;;1.48;0.40;;;18.20;38.00;;;;;;5113237;28;20059;-66
2021/05/05 03:17:49;;;;;;;1.77;0.50;;;18.20;38.00;;;;;;5113519;28;20051;-65
2021/05/05 03:20:14;;;;;;;2.35;0.65;;;18.10;38.00;;;;;;5113404;28;20028;-66
2021/05/05 03:22:40;;;;;;;1.15;0.40;;;18.20;38.00;;;;;;5113462;28;20024;-65
2021/05/05 03:25:07;;;;;;;1.67;0.60;;;18.20;38.10;;;;;;5113419;28;20028;-65
2021/05/05 03:27:33;;;;;;;1.63;0.60;;;18.10;38.00;;;;;;5113112;28;20038;-65
2021/05/05 03:30:00;;;;;;;1.20;0.50;;;18.20;38.00;;;;;;5113001;28;20028;-66
2021/05/05 03:32:26;;;;;;;2.53;0.50;;;18.10;38.00;;;;;;5114353;28;20169;-65
2021/05/05 03:34:51;;;;;;;1.48;0.63;;;18.10;38.00;;;;;;5116986;28;20047;-66
2021/05/05 03:37:17;;;;;;;0.95;0.45;;;18.10;38.10;;;;;;5116959;28;20066;-66
2021/05/05 03:39:42;;;;;;;3.00;0.55;;;18.10;38.10;;;;;;5116993;28;20024;-66
2021/05/05 03:42:08;;;;;;;2.25;0.63;;;18.10;38.10;;;;;;5116929;28;20441;-66
2021/05/05 03:44:34;;;;;;;1.63;0.60;;;18.10;38.10;;;;;;5116655;28;20384;-66
2021/05/05 03:47:00;;;;;;;3.55;0.47;;;18.10;38.10;;;;;;5116539;28;20077;-65
2021/05/05 03:49:26;;;;;;;1.63;0.60;;;18.10;38.10;;;;;;5116506;28;20027;-66
2021/05/05 03:51:52;;;;;;;2.40;0.65;;;18.10;38.10;;;;;;5116411;28;20019;-66
2021/05/05 03:54:18;;;;;;;2.20;0.60;;;18.10;38.10;;;;;;5116502;27;20032;-66
2021/05/05 03:56:45;;;;;;;2.05;0.50;;;18.10;38.00;;;;;;5116570;28;20394;-66
2021/05/05 03:59:10;;;;;;;1.88;0.73;;;18.10;38.10;;;;;;5116279;28;20023;-66
2021/05/05 04:01:36;;;;;;;1.27;0.50;;;18.10;38.10;;;;;;5116118;28;20072;-65
2021/05/05 04:04:01;;;;;;;1.33;0.50;;;18.10;38.10;;;;;;5116227;28;20028;-65
2021/05/05 04:06:27;;;;;;;1.17;0.47;;;18.10;38.10;;;;;;5115908;28;20035;-65
2021/05/05 04:08:52;;;;;;;1.15;0.40;;;18.10;38.10;;;;;;5116143;28;20036;-66
2021/05/05 04:11:19;;;;;;;0.80;0.40;;;18.10;38.10;;;;;;5115894;28;20107;-65
2021/05/05 04:13:44;;;;;;;2.05;0.70;;;18.10;38.10;;;;;;5115692;28;20031;-65
2021/05/05 04:16:10;;;;;;;1.88;0.70;;;18.10;38.10;;;;;;5115969;28;20027;-65
2021/05/05 04:18:35;;;;;;;2.53;0.68;;;18.10;38.10;;;;;;5115619;28;20084;-66
2021/05/05 04:21:04;;;;;;;2.63;0.60;;;18.10;38.10;;;;;;5115688;28;20023;-66
2021/05/05 04:23:31;;;;;;;2.10;0.60;;;18.10;38.10;;;;;;5116608;28;20456;-66
2021/05/05 04:25:57;;;;;;;2.10;0.50;;;18.10;38.10;;;;;;5118725;28;20058;-66
2021/05/05 04:28:24;;;;;;;1.38;0.40;;;18.10;38.00;;;;;;5127511;28;20063;-66
2021/05/05 04:30:50;;;;;;;1.50;0.40;;;18.10;38.00;;;;;;5128681;28;20084;-66
2021/05/05 04:33:15;;;;;;;2.60;0.70;;;18.10;38.00;;;;;;5127517;28;20087;-66
2021/05/05 04:35:41;;;;;;;1.42;0.50;;;18.10;38.00;;;;;;5128354;28;20012;-65
2021/05/05 04:38:06;;;;;;;1.42;0.50;;;18.10;38.00;;;;;;5125198;28;20046;-66
2021/05/05 04:40:32;;;;;;;2.22;0.55;;;18.10;38.00;;;;;;5125939;28;20035;-66
2021/05/05 04:42:57;;;;;;;1.50;0.57;;;18.10;38.00;;;;;;5125098;28;20063;-66
2021/05/05 04:45:23;;;;;;;2.50;0.30;;;18.10;38.00;;;;;;5116451;28;20051;-65
2021/05/05 04:47:49;;;;;;;3.28;0.70;;;18.10;38.00;;;;;;5115666;28;20031;-65
2021/05/05 04:50:14;;;;;;;3.00;0.60;;;18.10;38.00;;;;;;5113841;28;20448;-66
2021/05/05 04:52:40;;;;;;;0.82;0.30;;;18.10;38.00;;;;;;5115392;28;20062;-65
2021/05/05 04:55:07;;;;;;;1.65;0.50;;;18.10;38.00;;;;;;5115293;28;20429;-65
2021/05/05 04:57:34;;;;;;;2.40;0.60;;;18.10;38.00;;;;;;5115145;28;20039;-65
2021/05/05 05:00:00;;;;;;;1.17;0.40;;;18.10;38.00;;;;;;5115455;28;20031;-65
2021/05/05 05:02:26;;;;;;;1.83;0.60;;;18.10;38.00;;;;;;5115103;28;20041;-65
2021/05/05 05:04:51;;;;;;;1.02;0.45;;;18.10;38.00;;;;;;5114974;28;20507;-65
2021/05/05 05:07:17;;;;;;;1.48;0.60;;;18.10;38.10;;;;;;5114566;28;20498;-65
2021/05/05 05:09:43;;;;;;;2.40;0.50;;;18.10;38.00;;;;;;5114889;28;20099;-65
2021/05/05 05:12:09;;;;;;;0.68;0.32;;;18.10;38.10;;;;;;5114741;28;20107;-65
2021/05/05 05:14:38;;;;;;;1.02;0.40;;;18.10;38.10;;;;;;5115098;27;20105;-65
2021/05/05 05:17:04;;;;;;;2.28;0.60;;;18.10;38.10;;;;;;5114843;28;20446;-65
2021/05/05 05:19:29;;;;;;;0.88;0.30;;;18.10;38.10;;;;;;5115242;28;20024;-66
2021/05/05 05:21:55;;;;;;;2.25;0.63;;;18.10;38.10;;;;;;5114466;28;20027;-65
2021/05/05 05:24:20;;;;;;;1.83;0.40;;;18.10;38.10;;;;;;5114533;28;20054;-65
2021/05/05 05:26:46;;;;;;;1.02;0.55;;;18.00;38.10;;;;;;5114297;28;20575;-65
2021/05/05 05:29:12;;;;;;;2.25;0.68;;;18.00;38.10;;;;;;5114890;28;20035;-65
2021/05/05 05:31:37;;;;;;;1.92;0.52;;;18.00;38.20;;;;;;5114501;28;20019;-65
2021/05/05 05:34:03;;;;;;;1.90;0.70;;;18.00;38.20;;;;;;5114698;28;20034;-65
2021/05/05 05:36:29;;;;;;;1.95;0.47;;;18.00;38.20;;;;;;5114626;28;20039;-65
2021/05/05 05:38:54;;;;;;;1.45;0.40;;;18.00;38.10;;;;;;5114358;28;20523;-65
2021/05/05 05:41:20;;;;;;;2.22;0.50;;;18.00;38.10;;;;;;5114292;28;20023;-65
2021/05/05 05:43:45;;;;;;;1.05;0.38;;;18.00;38.20;;;;;;5114444;28;20111;-65
2021/05/05 05:46:11;;;;;;;2.28;0.70;;;18.00;38.20;;;;;;5114152;28;20034;-66
2021/05/05 05:48:37;;;;;;;1.92;0.60;;;18.00;38.20;;;;;;5114218;28;20023;-65
2021/05/05 05:51:03;;;;;;;2.50;0.77;;;18.00;38.20;;;;;;5114349;28;20054;-65
2021/05/05 05:53:28;;;;;;;2.72;0.80;;;18.00;38.20;;;;;;5114238;28;20395;-65
2021/05/05 05:55:54;;;;;;;1.20;0.50;;;18.00;38.10;;;;;;5113866;28;20050;-65
2021/05/05 05:58:19;;;;;;;1.27;0.47;;;18.00;38.20;;;;;;5114389;28;20123;-65
2021/05/05 06:00:45;;;;;;;2.22;0.55;;;18.00;38.20;;;;;;5113974;28;20030;-65
2021/05/05 06:03:10;;;;;;;2.00;0.50;;;18.00;38.20;;;;;;5114218;28;20114;-65
2021/05/05 06:05:36;;;;;;;2.25;0.38;;;18.00;38.20;;;;;;5114204;28;20035;-65
2021/05/05 06:08:03;;;;;;;2.05;0.55;;;18.00;38.20;;;;;;5113973;28;20028;-65
2021/05/05 06:10:29;;;;;;;2.25;0.60;;;18.00;38.20;;;;;;5113934;28;20077;-65
2021/05/05 06:12:55;;;;;;;4.00;0.68;;;18.00;38.20;;;;;;5114080;28;20551;-65
2021/05/05 06:15:20;;;;;;;2.05;0.60;;;18.00;38.20;;;;;;5114007;28;20077;-65
2021/05/05 06:17:46;;;;;;;0.50;0.28;;;18.00;38.30;;;;;;5114046;28;20490;-65
2021/05/05 06:20:12;;;;;;;3.13;0.52;;;18.00;38.30;;;;;;5113871;28;20062;-65
2021/05/05 06:22:38;;;;;;;1.95;0.80;;;18.00;38.30;;;;;;5113691;28;20061;-65
2021/05/05 06:25:06;;;;;;;1.98;0.60;;;18.00;38.30;;;;;;5113495;28;20039;-65
2021/05/05 06:27:32;;;;;;;2.15;0.60;;;18.00;38.30;;;;;;5114033;28;20020;-65
2021/05/05 06:29:58;;;;;;;2.35;0.52;;;18.00;38.30;;;;;;5113812;28;20028;-65
2021/05/05 06:32:24;;;;;;;3.05;0.50;;;18.00;38.30;;;;;;5113613;28;20046;-65
2021/05/05 06:34:51;;;;;;;2.67;0.80;;;18.00;38.30;;;;;;5113466;28;20024;-66
2021/05/05 06:37:17;;;;;;;1.73;0.57;;;18.00;38.30;;;;;;5113537;28;20028;-66
2021/05/05 06:39:42;;;;;;;1.00;0.60;;;18.00;38.30;;;;;;5113577;28;20019;-65
2021/05/05 06:42:08;;;;;;;3.97;0.70;;;18.00;38.30;;;;;;5113525;28;20050;-66
2021/05/05 06:44:33;;;;;;;2.05;0.60;;;18.00;38.30;;;;;;5113773;28;20057;-66
2021/05/05 06:46:59;;;;;;;1.23;0.43;;;18.00;38.30;;;;;;5113792;28;20019;-66
2021/05/05 06:49:25;;;;;;;2.28;0.80;;;18.00;38.30;;;;;;5113373;28;20031;-66
2021/05/05 06:51:51;;;;;;;1.83;0.63;;;18.00;38.30;;;;;;5113250;28;20024;-65
2021/05/05 06:54:17;;;;;;;2.08;0.65;;;18.00;38.40;;;;;;5096546;28;20039;-68
2021/05/05 06:56:43;;;;;;;1.85;0.95;;;18.00;38.30;;;;;;5101383;28;20024;-66
2021/05/05 06:59:08;;;;;;;2.00;0.52;;;18.00;38.40;;;;;;5092077;28;20036;-66
2021/05/05 07:01:40;;;;;;;2.58;0.80;;;18.00;38.20;;;;;;5092718;28;20387;-65
2021/05/05 07:04:07;;;;;;;2.33;0.60;;;18.00;38.20;;;;;;5091794;28;20039;-64
2021/05/05 07:06:33;;;;;;;1.42;0.50;;;18.00;38.20;;;;;;5092210;28;20035;-63
2021/05/05 07:09:00;;;;;;;3.30;0.88;;;18.00;38.20;;;;;;5096140;28;20071;-61
2021/05/05 07:11:26;;;;;;;1.20;0.40;;;18.00;38.30;;;;;;5096271;28;20038;-60
2021/05/05 07:13:52;;;;;;;1.13;0.57;;;18.00;38.40;;;;;;5095820;28;20043;-61
2021/05/05 07:16:19;;;;;;;1.85;0.52;;;18.00;38.30;;;;;;5095902;28;20020;-61
2021/05/05 07:18:44;;;;;;;2.58;0.52;;;18.00;38.20;;;;;;5095673;28;20036;-62
2021/05/05 07:21:10;;;;;;;1.65;0.68;;;18.00;38.20;;;;;;5096418;28;20020;-62
2021/05/05 07:23:35;;;;;;;1.00;0.40;;;18.00;38.30;;;;;;5095293;28;20055;-61
2021/05/05 07:26:01;;;;;;;2.10;0.50;;;18.00;38.30;;;;;;5096132;28;20069;-64
2021/05/05 07:28:26;;;;;;;1.20;0.35;;;18.00;38.30;;;;;;5095954;28;20043;-63
2021/05/05 07:30:53;;;;;;;1.95;0.60;;;18.00;38.30;;;;;;5095952;28;20098;-65
2021/05/05 07:33:18;;;;;;;1.70;0.50;;;18.00;38.30;;;;;;5095407;28;20042;-64
2021/05/05 07:35:50;;;;;;;1.23;0.45;;;18.00;38.30;;;;;;5095262;28;20103;-62
2021/05/05 07:46:05;;;;;;;2.10;0.60;;;18.00;38.40;;;;;;5094922;28;20123;-65
2021/05/05 07:48:39;;;;;;;1.35;0.50;;;18.10;38.40;;;;;;5095996;28;20036;-64
2021/05/05 07:51:05;;;;;;;1.00;0.45;;;18.00;38.30;;;;;;5095625;28;20026;-64
2021/05/05 07:53:31;;;;;;;0.82;0.40;;;18.00;38.40;;;;;;5096282;28;20028;-64
2021/05/05 07:55:58;;;;;;;1.25;0.50;;;18.00;38.30;;;;;;5094653;28;20360;-64
2021/05/05 07:58:25;;;;;;;1.73;0.50;;;18.00;38.40;;;;;;5095188;28;20051;-65
2021/05/05 08:00:50;;;;;;;1.73;0.60;;;18.10;38.30;;;;;;5095172;28;20025;-64
2021/05/05 08:03:16;;;;;;;3.60;0.60;;;18.10;38.40;;;;;;5099683;28;20231;-64
2021/05/05 08:05:41;;;;;;;2.47;0.60;;;18.10;38.30;;;;;;5114898;28;20027;-66
2021/05/05 08:08:07;;;;;;;1.52;0.60;;;18.10;38.30;;;;;;5104000;28;20028;-63
2021/05/05 08:10:32;;;;;;;1.92;0.60;;;18.20;38.30;;;;;;5095071;28;20103;-64
2021/05/05 08:12:58;;;;;;;1.67;0.40;;;18.20;38.30;;;;;;5095114;28;20475;-64
2021/05/05 08:15:24;;;;;;;1.13;0.50;;;18.20;38.40;;;;;;5093067;28;20452;-64
2021/05/05 08:17:50;;;;;;;2.25;0.40;;;18.20;38.30;;;;;;5094867;28;20035;-63
2021/05/05 08:20:15;;;;;;;1.63;1.00;;;18.30;38.20;;;;;;5094881;28;20024;-63
2021/05/05 08:22:42;;;;;;;2.58;0.57;;;18.40;38.20;;;;;;5094404;28;20055;-62
2021/05/05 08:25:08;;;;;;;0.95;0.40;;;18.40;38.10;;;;;;5094539;28;20111;-63
2021/05/05 08:27:34;;;;;;;2.75;1.30;;;18.40;38.10;;;;;;5093007;28;20020;-63
2021/05/05 08:30:00;;;;;;;1.55;0.45;;;18.50;38.10;;;;;;5095710;28;20050;-63
2021/05/05 08:32:25;;;;;;;1.58;0.55;;;18.50;38.00;;;;;;5082632;28;20434;-64
2021/05/05 08:34:51;;;;;;;2.97;0.70;;;18.70;38.00;;;;;;5077706;28;20112;-64
2021/05/05 08:37:17;;;;;;;4.15;0.80;;;18.70;38.00;;;;;;5089189;28;20024;-63
2021/05/05 08:39:42;;;;;;;3.17;0.70;;;18.80;38.00;;;;;;5086200;28;20032;-63
2021/05/05 08:42:08;;;;;;;0.80;0.40;;;18.80;37.90;;;;;;5077607;28;20040;-63
2021/05/05 08:44:35;;;;;;;2.28;0.60;;;18.80;37.90;;;;;;5077052;28;20554;-64
2021/05/05 08:47:01;;;;;;;1.70;0.63;;;18.90;37.90;;;;;;5083879;28;20028;-64
2021/05/05 08:49:27;;;;;;;2.35;0.70;;;18.90;37.90;;;;;;5096675;28;20032;-64
2021/05/05 08:51:53;;;;;;;2.50;0.50;;;19.00;37.80;;;;;;5106764;28;20360;-63
2021/05/05 08:54:19;;;;;;;2.28;0.70;;;19.00;37.80;;;;;;5093069;28;20047;-63
2021/05/05 08:56:44;;;;;;;1.23;0.40;;;19.10;37.80;;;;;;5077047;28;20028;-62
2021/05/05 08:59:15;;;;;;;3.08;0.60;;;19.10;37.80;;;;;;5075375;28;20031;-62
2021/05/05 09:01:42;;;;;;;2.00;0.50;;;19.20;37.80;;;;;;5086887;28;20074;-62
2021/05/05 09:04:08;;;;;;;3.10;0.57;;;19.20;37.80;;;;;;5093745;28;20115;-62
2021/05/05 09:06:44;;;;;;;1.27;0.50;;;19.20;37.80;;;;;;5084393;28;20433;-62
2021/05/05 09:09:10;;;;;;;2.60;0.70;;;19.30;37.80;;;;;;5073782;28;20033;-62
2021/05/05 09:11:46;;;;;;;1.85;0.50;;;19.30;37.80;;;;;;5076825;28;20093;-62
2021/05/05 09:14:11;;;;;;;1.38;0.47;;;19.40;37.80;;;;;;5098335;28;20059;-63
2021/05/05 09:16:37;;;;;;;1.58;0.45;;;19.40;37.80;;;;;;5092510;28;20020;-61
2021/05/05 09:19:05;;;;;;;1.83;0.55;;;19.40;37.80;;;;;;5098806;28;20020;-63
2021/05/05 09:21:46;;;;;;;0.68;0.30;;;19.50;37.90;;;;;;5077742;28;20028;-62
2021/05/05 09:24:31;;;;;;;1.52;0.50;;;19.50;37.80;;;;;;5095360;28;20044;-63
2021/05/05 09:27:03;;;;;;;2.85;0.50;;;19.50;37.90;;;;;;5084147;28;20052;-63
2021/05/05 09:29:48;;;;;;;1.40;0.50;;;19.50;37.80;;;;;;5096526;28;20035;-61
2021/05/05 09:32:16;;;;;;;2.55;0.68;;;19.60;37.80;;;;;;5092236;28;20028;-61
2021/05/05 09:34:42;;;;;;;2.90;0.68;;;19.60;37.70;;;;;;5074959;28;20106;-65
2021/05/05 09:37:11;;;;;;;2.05;0.60;;;19.70;37.70;;;;;;5090319;28;20081;-62
2021/05/05 09:39:39;;;;;;;4.00;0.73;;;19.70;37.70;;;;;;5091854;28;20024;-65
2021/05/05 09:42:17;;;;;;;2.22;0.68;;;19.80;37.60;;;;;;5077853;28;20114;-63
2021/05/05 09:44:53;;;;;;;1.08;0.52;;;19.80;37.60;;;;;;5072127;28;20146;-62
2021/05/05 09:47:18;;;;;;;1.80;0.57;;;19.80;37.60;;;;;;5072423;28;20133;-64
2021/05/05 09:49:44;;;;;;;2.47;0.80;;;19.90;37.60;;;;;;5072037;28;20401;-65
2021/05/05 09:52:15;;;;;;;1.70;0.40;;;19.90;37.60;;;;;;5097122;28;20026;-65
2021/05/05 09:55:03;;;;;;;1.73;0.70;;;20.00;37.50;;;;;;5092471;28;20328;-66
2021/05/05 09:57:30;;;;;;;3.90;0.85;;;20.00;37.50;;;;;;5092962;28;20024;-66
2021/05/05 10:00:11;;;;;;;3.00;0.68;;;20.00;37.60;;;;;;5092020;28;20035;-66
2021/05/05 10:02:59;;;;;;;1.95;0.60;;;20.00;37.50;;;;;;5092072;28;20016;-66
2021/05/05 10:05:31;;;;;;;2.15;0.60;;;20.00;37.50;;;;;;5073239;28;20028;-65
2021/05/05 10:07:58;;;;;;;2.58;0.70;;;20.10;37.50;;;;;;5087062;28;20095;-64
2021/05/05 10:10:27;;;;;;;1.42;0.50;;;20.10;37.50;;;;;;5091907;28;20028;-63
2021/05/05 10:12:55;;;;;;;3.10;0.88;;;20.20;37.50;;;;;;5070882;28;20059;-64
2021/05/05 10:15:21;;;;;;;1.25;0.60;;;20.20;37.50;;;;;;5089505;28;20468;-64
2021/05/05 10:17:51;;;;;;;1.23;0.57;;;20.30;37.40;;;;;;5075158;28;20046;-65
2021/05/05 10:20:26;;;;;;;1.50;0.70;;;20.30;37.40;;;;;;5091919;28;20136;-64
2021/05/05 10:22:57;;;;;;;1.60;0.52;;;20.30;37.30;;;;;;5083961;28;20101;-63
2021/05/05 10:25:23;;;;;;;1.67;0.60;;;20.30;37.30;;;;;;5072676;28;20035;-63
2021/05/05 10:27:50;;;;;;;1.15;0.43;;;20.30;37.40;;;;;;5089272;28;20028;-64
2021/05/05 10:30:19;;;;;;;2.58;0.70;;;20.40;37.40;;;;;;5076851;28;20103;-63
2021/05/05 10:32:46;;;;;;;3.85;0.60;;;20.30;37.40;;;;;;5069762;28;20401;-64
2021/05/05 10:35:17;;;;;;;1.55;0.60;;;20.40;37.40;;;;;;5075748;28;20094;-68
2021/05/05 10:37:55;;;;;;;1.42;0.60;;;20.40;37.50;;;;;;5076949;28;20020;-66
2021/05/05 10:40:23;;;;;;;1.15;0.60;;;20.40;37.40;;;;;;5105521;28;20030;-67
2021/05/05 10:42:51;;;;;;;1.65;0.60;;;20.50;37.20;;;;;;5092342;28;20063;-68
2021/05/05 10:45:29;;;;;;;2.42;0.60;;;20.60;37.20;;;;;;5088403;28;20119;-65
2021/05/05 10:48:09;;;;;;;2.13;0.50;;;20.50;37.40;;;;;;5093935;28;20491;-66
2021/05/05 10:50:52;;;;;;;2.38;0.50;;;20.50;37.40;;;;;;5103616;28;20066;-65
2021/05/05 10:53:41;;;;;;;2.60;0.65;;;20.60;37.30;;;;;;5088133;28;20047;-66
2021/05/05 10:56:36;;;;;;;2.25;0.57;;;20.70;37.20;;;;;;5097849;28;20085;-68
2021/05/05 10:59:07;;;;;;;1.20;0.50;;;20.80;37.20;;;;;;5069999;28;20054;-65
2021/05/05 11:01:37;;;;;;;1.80;0.65;;;20.80;37.10;;;;;;5127025;28;20028;-66
2021/05/05 11:04:06;;;;;;;3.05;0.57;;;20.90;37.10;;;;;;5113243;28;20016;-65
2021/05/05 11:06:36;;;;;;;1.20;0.50;;;20.90;37.10;;;;;;5100471;28;20103;-64
2021/05/05 11:09:11;;;;;;;0.98;0.50;;;21.00;37.00;;;;;;5100265;28;20019;-65
2021/05/05 11:11:55;;;;;;;2.13;0.60;;;21.00;37.10;;;;;;5107600;28;20021;-64
2021/05/05 11:14:24;;;;;;;;;;;20.90;37.20;;;;;;5103575;28;20039;-64
2021/05/05 11:16:57;;;;;;;1.48;0.65;;;20.90;37.30;;;;;;5101319;28;19904;-64
2021/05/05 11:19:38;;;;;;;2.70;0.68;;;20.90;37.40;;;;;;5095465;28;20089;-65
2021/05/05 11:22:22;;;;;;;0.77;0.40;;;20.80;37.30;;;;;;5094784;28;20042;-63
2021/05/05 11:24:50;;;;;;;2.35;0.60;;;20.90;37.30;;;;;;5094407;28;20484;-64
2021/05/05 11:27:17;;;;;;;2.80;0.73;;;20.90;37.30;;;;;;5091257;28;20028;-66
2021/05/05 11:29:50;;;;;;;1.67;0.57;;;20.80;37.40;;;;;;5082035;28;20020;-68
2021/05/05 11:32:24;;;;;;;1.15;0.50;;;20.80;37.30;;;;;;5082770;28;20425;-65
2021/05/05 11:34:51;;;;;;;1.98;0.60;;;20.90;37.40;;;;;;5095043;28;20202;-67
2021/05/05 11:37:24;;;;;;;2.92;0.60;;;20.90;37.30;;;;;;5093142;28;20028;-67
2021/05/05 11:40:02;;;;;;;2.00;0.70;;;20.90;37.40;;;;;;5077300;28;20054;-65
2021/05/05 11:42:36;;;;;;;1.98;0.50;;;21.00;37.30;;;;;;5075564;28;20032;-65
2021/05/05 11:45:12;;;;;;;;;;;21.00;37.30;;;;;;5083161;28;20019;-64
2021/05/05 11:47:42;;;;;;;3.20;0.70;;;21.00;37.20;;;;;;5094209;28;20386;-64
2021/05/05 11:50:20;;;;;;;2.30;0.80;;;21.00;37.20;;;;;;5085573;28;20029;-64
2021/05/05 11:52:51;;;;;;;2.13;0.50;;;21.20;37.00;;;;;;5080448;28;20047;-64
2021/05/05 11:55:19;;;;;;;2.13;0.50;;;21.20;37.00;;;;;;5074668;28;20059;-64
2021/05/05 11:57:50;;;;;;;2.22;0.70;;;21.20;37.10;;;;;;5087041;28;20025;-66
2021/05/05 12:00:25;;;;;;;2.65;0.70;;;21.20;37.10;;;;;;5094917;28;20032;-65
2021/05/05 12:02:53;;;;;;;1.90;0.40;;;21.20;37.10;;;;;;5097495;28;20016;-63
2021/05/05 12:05:29;;;;;;;2.70;0.70;;;21.20;37.10;;;;;;5104340;28;20365;-62
2021/05/05 12:08:29;;;;;;;2.05;0.47;;;21.20;37.10;;;;;;5114962;28;20020;-64
2021/05/05 12:10:56;;;;;;;2.60;0.60;;;21.20;37.10;;;;;;5075127;28;20039;-65
2021/05/05 12:13:24;;;;;;;1.95;0.70;;;21.20;37.00;;;;;;5087100;28;20069;-64
2021/05/05 12:15:59;;;;;;;2.28;0.68;;;21.30;36.90;;;;;;5088811;28;20017;-65
2021/05/05 12:18:34;;;;;;;1.35;0.57;;;21.30;36.90;;;;;;5085908;28;20073;-63
2021/05/05 12:21:05;;;;;;;3.38;0.80;;;21.40;36.80;;;;;;5095964;28;20028;-64
2021/05/05 12:23:37;;;;;;;2.75;0.63;;;21.40;36.80;;;;;;5107403;28;20098;-64
2021/05/05 12:26:18;;;;;;;2.95;0.77;;;21.50;36.70;;;;;;5080523;28;20116;-64
2021/05/05 12:28:45;;;;;;;1.98;0.63;;;21.50;36.60;;;;;;5089704;28;20035;-64
2021/05/05 12:31:16;;;;;;;2.90;0.65;;;21.60;36.40;;;;;;5091249;28;20368;-65
2021/05/05 12:33:43;;;;;;;1.23;0.40;;;21.70;36.30;;;;;;5074572;28;20082;-66
2021/05/05 12:36:14;;;;;;;3.35;0.63;;;21.80;36.40;;;;;;5076940;28;20115;-66
2021/05/05 12:38:45;;;;;;;1.45;0.55;;;21.80;36.30;;;;;;5081276;28;20064;-65
2021/05/05 12:41:14;;;;;;;2.45;0.43;;;21.70;36.20;;;;;;5094020;28;20089;-66
2021/05/05 12:43:44;;;;;;;2.55;0.70;;;21.70;36.40;;;;;;5092182;28;20038;-67
2021/05/05 12:46:54;;;;;;;2.33;0.60;;;21.70;36.50;;;;;;5093528;28;20113;-66
2021/05/05 12:49:35;;;;;;;2.90;0.50;;;21.70;36.50;;;;;;5092984;28;20475;-68
2021/05/05 12:52:01;;;;;;;2.45;0.80;;;21.70;36.60;;;;;;5074251;28;20411;-68
2021/05/05 12:54:34;;;;;;;3.03;0.52;;;21.70;36.60;;;;;;5074516;28;20032;-66
2021/05/05 12:57:01;;;;;;;2.08;0.73;;;21.60;36.60;;;;;;5073951;28;20021;-66
2021/05/05 12:59:29;;;;;;;3.95;0.50;;;21.60;36.70;;;;;;5084058;28;20027;-68